Time;durP1;ratioP1;P1;durP2;ratioP2;P2;SDS_P1;SDS_P2;PMS_P1;PMS_P2;Temp;Humidity;BMP_temperature;BMP_pressure;BME280_temperature;BME280_humidity;BME280_pressure;Samples;Min_cycle;Max_cycle;Signal;HPM_P1;HPM_P2
2021/05/08 00:00:39;;;;;;;10.10;8.40;;;5.20;1.00;;;;;;5094569;28;20266;-68
2021/05/08 00:03:05;;;;;;;10.73;8.77;;;5.30;1.00;;;;;;5095289;28;20175;-69
2021/05/08 00:05:31;;;;;;;10.20;8.07;;;5.30;1.00;;;;;;5094613;28;20207;-69
2021/05/08 00:07:56;;;;;;;11.43;8.00;;;5.20;1.00;;;;;;5094436;28;20559;-68
2021/05/08 00:10:22;;;;;;;9.53;8.23;;;5.10;1.00;;;;;;5095234;28;20207;-69
2021/05/08 00:12:48;;;;;;;11.60;9.33;;;5.10;1.00;;;;;;5094356;28;20643;-69
2021/05/08 00:15:15;;;;;;;9.80;8.20;;;5.10;1.00;;;;;;5094259;28;20502;-68
2021/05/08 00:17:42;;;;;;;9.05;8.15;;;5.10;1.00;;;;;;5094323;28;20172;-69
2021/05/08 00:20:10;;;;;;;9.85;8.85;;;4.80;1.00;;;;;;5094188;28;20253;-69
2021/05/08 00:22:35;;;;;;;13.63;8.88;;;4.60;1.00;;;;;;5094093;28;20175;-68
2021/05/08 00:25:01;;;;;;;11.03;9.10;;;4.60;1.00;;;;;;5093966;28;20191;-68
2021/05/08 00:27:26;;;;;;;10.10;9.20;;;4.80;1.00;;;;;;5094131;28;20190;-69
2021/05/08 00:29:52;;;;;;;8.27;7.27;;;4.70;1.00;;;;;;5094071;28;20182;-69
2021/05/08 00:32:18;;;;;;;10.07;8.90;;;4.90;1.00;;;;;;5094271;28;20170;-68
2021/05/08 00:34:43;;;;;;;9.80;8.40;;;4.70;1.00;;;;;;5093038;28;20191;-69
2021/05/08 00:37:09;;;;;;;11.40;8.63;;;4.60;1.00;;;;;;5094145;28;20175;-68
2021/05/08 00:39:35;;;;;;;8.07;7.27;;;4.50;1.00;;;;;;5094138;28;20164;-69
2021/05/08 00:42:00;;;;;;;9.43;8.40;;;4.70;1.00;;;;;;5094117;28;20380;-68
2021/05/08 00:44:26;;;;;;;9.70;8.70;;;4.80;1.00;;;;;;5092579;28;20273;-68
2021/05/08 00:46:52;;;;;;;11.53;8.27;;;4.40;1.00;;;;;;5093963;28;20202;-69
2021/05/08 00:49:22;;;;;;;8.60;7.85;;;4.30;1.00;;;;;;5093652;28;20160;-68
2021/05/08 00:51:47;;;;;;;11.88;9.27;;;4.30;1.00;;;;;;5093661;28;20160;-69
2021/05/08 00:54:13;;;;;;;10.40;8.90;;;4.40;12.00;;;;;;5093578;28;20233;-69
2021/05/08 00:56:40;;;;;;;11.70;8.17;;;4.60;1.00;;;;;;5093843;28;20209;-69
2021/05/08 00:59:05;;;;;;;9.25;8.05;;;4.60;1.00;;;;;;5093516;28;20205;-69
2021/05/08 01:01:31;;;;;;;12.63;10.80;;;4.50;1.00;;;;;;5093632;28;20640;-68
2021/05/08 01:03:56;;;;;;;11.17;9.80;;;4.40;1.00;;;;;;5094112;28;20191;-69
2021/05/08 01:06:22;;;;;;;11.23;8.30;;;4.30;1.00;;;;;;5093771;28;20205;-71
2021/05/08 01:08:48;;;;;;;9.47;8.17;;;4.40;1.00;;;;;;5093428;28;20179;-68
2021/05/08 01:11:14;;;;;;;16.07;8.50;;;4.40;1.00;;;;;;5093517;28;20163;-70
2021/05/08 01:13:40;;;;;;;8.93;7.55;;;4.50;1.00;;;;;;5093320;28;20771;-68
2021/05/08 01:16:06;;;;;;;10.93;8.07;;;4.40;1.00;;;;;;5093301;28;20178;-70
2021/05/08 01:18:32;;;;;;;12.60;8.77;;;4.30;1.00;;;;;;5093538;28;20163;-67
2021/05/08 01:20:59;;;;;;;9.32;8.43;;;4.20;1.00;;;;;;5093460;28;20675;-70
2021/05/08 01:23:25;;;;;;;14.00;9.32;;;4.30;1.00;;;;;;5093302;28;20640;-69
2021/05/08 01:25:50;;;;;;;10.30;8.27;;;4.30;1.00;;;;;;5093046;28;20281;-69
2021/05/08 01:28:16;;;;;;;13.57;9.77;;;4.20;1.00;;;;;;5092530;28;20164;-67
2021/05/08 01:30:41;;;;;;;10.40;8.97;;;4.10;1.00;;;;;;5093282;28;20176;-69
2021/05/08 01:33:07;;;;;;;14.53;9.03;;;4.30;10.90;;;;;;5093303;28;20214;-70
2021/05/08 01:35:34;;;;;;;10.77;7.97;;;4.10;1.00;;;;;;5093124;28;20206;-69
2021/05/08 01:38:00;;;;;;;12.35;9.32;;;4.10;1.00;;;;;;5093288;28;20479;-70
2021/05/08 01:40:28;;;;;;;9.70;8.68;;;4.20;24.60;;;;;;5093061;28;20171;-70
2021/05/08 01:42:53;;;;;;;10.18;8.30;;;4.10;1.00;;;;;;5093465;28;20174;-70
2021/05/08 01:45:21;;;;;;;12.63;8.67;;;4.00;16.70;;;;;;5092798;28;20195;-69
2021/05/08 01:47:48;;;;;;;14.30;9.18;;;4.00;26.70;;;;;;5093112;28;20172;-67
2021/05/08 01:50:17;;;;;;;11.93;9.32;;;4.10;11.90;;;;;;5092856;28;20182;-67
2021/05/08 01:52:43;;;;;;;12.63;10.20;;;3.90;1.00;;;;;;5093085;28;20175;-69
2021/05/08 01:55:12;;;;;;;10.73;8.70;;;4.20;28.40;;;;;;5092741;28;20191;-68
2021/05/08 01:57:42;;;;;;;11.98;9.63;;;4.20;1.00;;;;;;5092773;28;20160;-68
2021/05/08 02:00:21;;;;;;;13.15;8.82;;;4.30;1.00;;;;;;5092706;28;20175;-68
2021/05/08 02:02:48;;;;;;;9.48;8.48;;;4.10;1.00;;;;;;5092643;28;20164;-68
2021/05/08 02:05:14;;;;;;;9.90;8.27;;;3.90;1.00;;;;;;5092519;28;20223;-67
2021/05/08 02:07:40;;;;;;;11.83;9.40;;;4.00;24.20;;;;;;5092561;28;20179;-68
2021/05/08 02:10:08;;;;;;;9.73;8.50;;;4.10;1.00;;;;;;5093406;28;20266;-68
2021/05/08 02:12:37;;;;;;;10.93;8.88;;;3.80;12.70;;;;;;5092531;28;20762;-68
2021/05/08 02:15:07;;;;;;;11.48;9.77;;;3.80;53.10;;;;;;5093201;28;20183;-67
2021/05/08 02:17:34;;;;;;;11.65;9.60;;;3.90;99.90;;;;;;5092489;28;20179;-67
2021/05/08 02:19:59;;;;;;;10.43;9.32;;;3.90;44.10;;;;;;5092496;28;20194;-68
2021/05/08 02:22:25;;;;;;;14.37;9.60;;;4.00;43.60;;;;;;5092851;28;20167;-68
2021/05/08 02:24:50;;;;;;;13.23;10.17;;;4.00;27.70;;;;;;5092679;28;20240;-68
2021/05/08 02:27:16;;;;;;;10.40;8.77;;;4.10;24.00;;;;;;5093036;28;20163;-68
2021/05/08 02:29:42;;;;;;;12.60;8.87;;;4.20;1.00;;;;;;5092718;28;20716;-68
2021/05/08 02:32:08;;;;;;;13.97;9.23;;;4.20;1.00;;;;;;5091214;28;20190;-68
2021/05/08 02:34:33;;;;;;;12.10;8.52;;;4.10;1.00;;;;;;5092418;28;20611;-68
2021/05/08 02:37:00;;;;;;;11.80;10.10;;;3.90;1.00;;;;;;5092409;28;20195;-67
2021/05/08 02:39:25;;;;;;;14.10;8.95;;;4.00;1.00;;;;;;5095170;28;20195;-68
2021/05/08 02:41:51;;;;;;;22.90;10.43;;;3.90;1.00;;;;;;5096386;28;20213;-68
2021/05/08 02:44:16;;;;;;;11.83;9.47;;;4.00;71.90;;;;;;5096140;28;20600;-68
2021/05/08 02:46:42;;;;;;;11.23;9.67;;;4.00;47.50;;;;;;5096161;28;20710;-69
2021/05/08 02:49:07;;;;;;;67.70;15.80;;;4.10;15.50;;;;;;5095990;28;20534;-67
2021/05/08 02:51:33;;;;;;;22.80;9.83;;;4.20;1.00;;;;;;5096170;28;20163;-68
2021/05/08 02:53:58;;;;;;;11.93;9.30;;;4.20;1.00;;;;;;5095771;28;20234;-67
2021/05/08 02:56:24;;;;;;;10.03;8.20;;;4.20;1.00;;;;;;5096049;28;20617;-68
2021/05/08 02:58:49;;;;;;;13.93;9.47;;;4.20;1.00;;;;;;5095992;28;20304;-69
2021/05/08 03:01:15;;;;;;;12.47;10.00;;;4.10;1.00;;;;;;5095635;28;20242;-67
2021/05/08 03:03:40;;;;;;;10.03;8.10;;;4.20;1.00;;;;;;5095643;28;20670;-67
2021/05/08 03:06:07;;;;;;;13.73;8.30;;;4.20;1.00;;;;;;5095422;28;20202;-68
2021/05/08 03:08:32;;;;;;;10.80;8.48;;;4.20;1.00;;;;;;5095382;28;20175;-68
2021/05/08 03:10:58;;;;;;;10.70;9.07;;;4.10;1.00;;;;;;5095557;28;20166;-68
2021/05/08 03:13:23;;;;;;;10.60;9.00;;;4.10;1.00;;;;;;5095424;28;20597;-68
2021/05/08 03:15:49;;;;;;;10.43;9.33;;;4.00;1.00;;;;;;5095630;28;20713;-68
2021/05/08 03:18:14;;;;;;;10.13;8.77;;;4.00;1.00;;;;;;5095298;28;20167;-68
2021/05/08 03:20:40;;;;;;;13.17;8.93;;;4.00;1.00;;;;;;5095221;28;20537;-68
2021/05/08 03:23:05;;;;;;;17.03;8.83;;;4.20;1.00;;;;;;5095433;28;20225;-68
2021/05/08 03:25:31;;;;;;;11.17;8.60;;;4.00;1.00;;;;;;5095102;28;20206;-67
2021/05/08 03:27:56;;;;;;;11.70;8.87;;;3.90;1.00;;;;;;5095102;28;20159;-68
2021/05/08 03:30:22;;;;;;;11.90;9.17;;;3.80;1.00;;;;;;5095336;28;20247;-68
2021/05/08 03:32:48;;;;;;;10.63;8.57;;;3.80;1.00;;;;;;5095302;28;20159;-68
2021/05/08 03:35:13;;;;;;;10.83;8.17;;;3.90;1.00;;;;;;5094908;28;20430;-68
2021/05/08 03:37:39;;;;;;;9.20;8.23;;;3.90;1.00;;;;;;5094899;28;20178;-68
2021/05/08 03:40:05;;;;;;;10.53;8.63;;;3.80;1.00;;;;;;5095201;28;20644;-68
2021/05/08 03:42:31;;;;;;;12.35;9.10;;;3.80;1.00;;;;;;5094803;28;20170;-68
2021/05/08 03:44:56;;;;;;;11.13;8.70;;;4.00;1.00;;;;;;5094710;28;20251;-68
2021/05/08 03:47:22;;;;;;;13.33;8.40;;;4.00;1.00;;;;;;5094707;28;20540;-68
2021/05/08 03:49:47;;;;;;;32.87;9.70;;;4.10;1.00;;;;;;5094662;28;20172;-68
2021/05/08 03:52:13;;;;;;;9.93;8.83;;;4.20;1.00;;;;;;5094631;28;20244;-68
2021/05/08 03:54:38;;;;;;;9.20;7.70;;;4.40;1.00;;;;;;5094709;28;20184;-67
2021/05/08 03:57:05;;;;;;;8.90;7.97;;;4.10;1.00;;;;;;5094809;28;20163;-68
2021/05/08 03:59:30;;;;;;;9.30;7.43;;;4.20;1.00;;;;;;5094736;28;20544;-68
2021/05/08 04:01:56;;;;;;;10.47;7.83;;;4.20;1.00;;;;;;5094415;28;20168;-68
2021/05/08 04:04:21;;;;;;;11.60;8.17;;;4.10;1.00;;;;;;5094374;28;20278;-68
2021/05/08 04:06:47;;;;;;;10.33;7.67;;;4.10;1.00;;;;;;5094271;28;20195;-68
2021/05/08 04:09:13;;;;;;;8.20;6.77;;;4.00;1.00;;;;;;5094209;28;20183;-67
2021/05/08 04:11:39;;;;;;;8.27;7.03;;;4.10;1.00;;;;;;5094586;28;20171;-68
2021/05/08 04:14:05;;;;;;;8.52;6.53;;;4.10;1.00;;;;;;5094405;28;20556;-68
2021/05/08 04:16:33;;;;;;;9.32;6.78;;;4.10;1.00;;;;;;5094174;28;20168;-68
2021/05/08 04:19:03;;;;;;;9.95;6.82;;;4.20;1.00;;;;;;5094089;28;20175;-67
2021/05/08 04:21:29;;;;;;;7.50;6.32;;;4.30;1.00;;;;;;5094370;28;20171;-68
2021/05/08 04:23:54;;;;;;;11.13;6.65;;;4.20;1.00;;;;;;5094111;28;20192;-68
2021/05/08 04:26:20;;;;;;;9.30;6.67;;;4.30;1.00;;;;;;5093884;28;20239;-68
2021/05/08 04:28:46;;;;;;;10.77;6.27;;;4.50;1.00;;;;;;5094375;28;20254;-68
2021/05/08 04:31:11;;;;;;;7.70;6.57;;;4.50;1.00;;;;;;5094013;28;20660;-68
2021/05/08 04:33:37;;;;;;;10.97;6.73;;;4.50;1.00;;;;;;5093757;28;20552;-68
2021/05/08 04:36:03;;;;;;;11.23;6.73;;;4.50;1.00;;;;;;5093878;28;20514;-68
2021/05/08 04:38:29;;;;;;;7.05;5.75;;;4.60;1.00;;;;;;5093628;28;20183;-69
2021/05/08 04:40:55;;;;;;;9.90;5.87;;;4.50;1.00;;;;;;5093964;28;20167;-68
2021/05/08 04:43:21;;;;;;;10.57;5.60;;;4.70;1.00;;;;;;5093724;28;20172;-69
2021/05/08 04:45:46;;;;;;;10.53;6.47;;;4.80;1.00;;;;;;5093600;28;20198;-69
2021/05/08 04:48:21;;;;;;;9.27;6.23;;;4.70;1.00;;;;;;5092277;28;20651;-68
2021/05/08 04:50:47;;;;;;;12.55;6.80;;;4.60;1.00;;;;;;5093581;28;20155;-69
2021/05/08 04:53:12;;;;;;;9.23;5.83;;;4.80;1.00;;;;;;5093531;28;20567;-68
2021/05/08 04:55:38;;;;;;;7.43;5.80;;;4.90;1.00;;;;;;5093376;28;20683;-69
2021/05/08 04:58:06;;;;;;;9.50;5.70;;;5.10;1.00;;;;;;5093571;28;20217;-68
2021/05/08 05:00:32;;;;;;;7.05;5.72;;;5.10;1.00;;;;;;5093316;28;20175;-69
2021/05/08 05:02:58;;;;;;;7.40;5.38;;;5.00;1.00;;;;;;5092522;28;20211;-68
2021/05/08 05:05:23;;;;;;;8.80;5.00;;;5.10;1.00;;;;;;5091944;28;20226;-68
2021/05/08 05:07:49;;;;;;;10.47;5.40;;;5.20;1.00;;;;;;5093205;28;20262;-69
2021/05/08 05:10:15;;;;;;;7.20;4.83;;;5.30;1.00;;;;;;5093165;28;20160;-68
2021/05/08 05:12:41;;;;;;;6.00;4.95;;;5.60;1.00;;;;;;5093452;28;20160;-69
2021/05/08 05:15:07;;;;;;;7.22;4.95;;;5.60;1.00;;;;;;5093175;28;20202;-69
2021/05/08 05:17:33;;;;;;;7.35;4.78;;;5.60;1.00;;;;;;5093801;28;20176;-68
2021/05/08 05:19:59;;;;;;;6.40;5.80;;;5.60;1.00;;;;;;5093099;28;20176;-68
2021/05/08 05:22:24;;;;;;;6.30;5.23;;;5.70;1.00;;;;;;5093307;28;20171;-68
2021/05/08 05:24:50;;;;;;;8.30;4.30;;;5.80;1.00;;;;;;5093121;28;20194;-69
2021/05/08 05:27:15;;;;;;;6.60;5.30;;;5.90;1.00;;;;;;5093259;28;20191;-69
2021/05/08 05:29:41;;;;;;;7.90;5.27;;;6.10;1.00;;;;;;5093225;28;20632;-68
2021/05/08 05:32:06;;;;;;;5.80;4.90;;;6.00;1.00;;;;;;5093508;28;20212;-69
2021/05/08 05:34:32;;;;;;;6.03;5.17;;;6.00;1.00;;;;;;5092897;28;20196;-68
2021/05/08 05:36:58;;;;;;;9.97;4.40;;;6.10;1.00;;;;;;5092890;28;20390;-69
2021/05/08 05:39:23;;;;;;;5.63;4.73;;;6.20;1.00;;;;;;5091533;28;20713;-68
2021/05/08 05:41:49;;;;;;;8.70;4.97;;;6.30;1.00;;;;;;5092815;28;20705;-68
2021/05/08 05:44:14;;;;;;;8.23;4.20;;;6.40;1.00;;;;;;5092700;28;20198;-69
2021/05/08 05:46:40;;;;;;;7.30;3.90;;;6.50;1.00;;;;;;5091496;28;20199;-69
2021/05/08 05:49:05;;;;;;;8.10;4.60;;;6.50;1.00;;;;;;5092641;28;20262;-68
2021/05/08 05:51:31;;;;;;;5.80;4.03;;;6.70;1.00;;;;;;5092760;28;20167;-68
2021/05/08 05:53:56;;;;;;;6.17;4.50;;;6.80;1.00;;;;;;5092616;28;20183;-69
2021/05/08 05:56:24;;;;;;;5.33;4.63;;;7.10;1.00;;;;;;5092751;28;20182;-69
2021/05/08 05:58:50;;;;;;;5.85;3.60;;;7.30;1.00;;;;;;5092912;28;20264;-69
2021/05/08 06:01:15;;;;;;;8.27;4.50;;;7.20;1.00;;;;;;5092860;28;20187;-69
2021/05/08 06:03:41;;;;;;;5.27;4.63;;;7.40;1.00;;;;;;5092507;28;20694;-69
2021/05/08 06:06:06;;;;;;;6.33;3.50;;;7.50;1.00;;;;;;5092521;28;20233;-69
2021/05/08 06:08:32;;;;;;;5.73;3.90;;;7.50;1.00;;;;;;5092355;28;20190;-69
2021/05/08 06:10:57;;;;;;;9.33;4.13;;;7.70;1.00;;;;;;5092663;28;20187;-69
2021/05/08 06:13:23;;;;;;;6.73;4.50;;;7.80;99.90;;;;;;5093228;28;20247;-69
2021/05/08 06:15:49;;;;;;;5.60;3.70;;;7.90;1.00;;;;;;5096624;28;20172;-69
2021/05/08 06:18:14;;;;;;;9.53;4.13;;;8.20;99.90;;;;;;5096692;28;20424;-69
2021/05/08 06:20:40;;;;;;;6.33;4.47;;;8.60;99.90;;;;;;5096276;28;20178;-69
2021/05/08 06:23:05;;;;;;;6.37;3.93;;;8.50;99.90;;;;;;5096248;28;20202;-69
2021/05/08 06:25:31;;;;;;;4.80;3.90;;;8.70;99.90;;;;;;5096403;28;20199;-69
2021/05/08 06:27:57;;;;;;;6.03;4.20;;;8.60;99.90;;;;;;5095971;28;20704;-69
2021/05/08 06:30:22;;;;;;;8.13;4.50;;;8.70;99.90;;;;;;5096313;28;20167;-69
2021/05/08 06:32:48;;;;;;;19.80;5.60;;;9.10;99.90;;;;;;5095959;28;20217;-69
2021/05/08 06:35:13;;;;;;;8.90;4.03;;;9.20;99.90;;;;;;5096018;28;20664;-69
2021/05/08 06:37:39;;;;;;;6.33;4.43;;;9.40;99.90;;;;;;5095818;28;20166;-68
2021/05/08 06:40:05;;;;;;;5.70;4.53;;;9.70;99.90;;;;;;5095976;28;20171;-70
2021/05/08 06:42:32;;;;;;;8.63;4.00;;;9.80;99.90;;;;;;5095715;28;20168;-69
2021/05/08 06:44:58;;;;;;;7.13;3.83;;;9.90;99.90;;;;;;5095743;28;20439;-68
2021/05/08 06:47:23;;;;;;;5.37;4.40;;;9.90;99.90;;;;;;5096058;28;20394;-68
2021/05/08 06:49:49;;;;;;;4.27;3.60;;;10.30;99.90;;;;;;5095901;28;20171;-68
2021/05/08 06:52:15;;;;;;;5.90;4.30;;;10.40;99.90;;;;;;5095869;28;20592;-68
2021/05/08 06:54:40;;;;;;;4.60;3.43;;;10.60;99.90;;;;;;5095473;28;20206;-68
2021/05/08 06:57:06;;;;;;;7.43;3.47;;;10.60;99.90;;;;;;5095646;28;20415;-68
2021/05/08 06:59:31;;;;;;;7.00;4.53;;;10.60;99.90;;;;;;5095416;28;20178;-68
2021/05/08 07:01:57;;;;;;;4.80;3.60;;;10.80;99.90;;;;;;5095362;28;20540;-68
2021/05/08 07:04:23;;;;;;;6.00;3.63;;;10.90;99.90;;;;;;5095438;28;20191;-69
2021/05/08 07:06:48;;;;;;;7.17;4.20;;;10.80;99.90;;;;;;5095378;28;20286;-68
2021/05/08 07:09:14;;;;;;;6.83;3.57;;;11.00;99.90;;;;;;5095447;28;20554;-68
2021/05/08 07:11:39;;;;;;;5.80;3.50;;;11.20;99.90;;;;;;5095489;28;20172;-68
2021/05/08 07:14:05;;;;;;;11.17;4.10;;;11.20;99.90;;;;;;5095170;28;20668;-68
2021/05/08 07:16:31;;;;;;;5.23;3.07;;;11.40;99.90;;;;;;5095495;28;20176;-68
2021/05/08 07:18:56;;;;;;;8.23;4.40;;;11.30;99.90;;;;;;5095261;28;20213;-68
2021/05/08 07:21:22;;;;;;;10.97;3.30;;;11.50;99.90;;;;;;5095222;28;20418;-68
2021/05/08 07:23:47;;;;;;;6.03;3.30;;;11.50;99.90;;;;;;5095054;28;20618;-69
2021/05/08 07:26:13;;;;;;;6.93;2.93;;;11.50;99.90;;;;;;5094108;28;20644;-68
2021/05/08 07:28:38;;;;;;;6.80;3.33;;;11.40;99.90;;;;;;5094909;28;20164;-68
2021/05/08 07:31:04;;;;;;;6.57;3.57;;;11.50;99.90;;;;;;5095067;28;20159;-68
2021/05/08 07:33:29;;;;;;;4.43;3.27;;;11.40;99.90;;;;;;5094859;28;20169;-69
2021/05/08 07:35:55;;;;;;;5.33;2.70;;;11.60;99.90;;;;;;5094960;28;20171;-68
2021/05/08 07:38:21;;;;;;;4.97;3.23;;;11.70;99.90;;;;;;5094888;28;20171;-68
2021/05/08 07:40:51;;;;;;;5.93;3.57;;;11.80;99.90;;;;;;5095217;28;20179;-68
2021/05/08 07:43:18;;;;;;;4.13;3.43;;;11.90;99.90;;;;;;5094568;28;20160;-68
2021/05/08 07:45:44;;;;;;;7.33;3.77;;;11.90;99.90;;;;;;5094747;28;20484;-68
2021/05/08 07:48:10;;;;;;;7.40;4.77;;;12.00;99.90;;;;;;5094529;28;20394;-69
2021/05/08 07:50:36;;;;;;;7.00;3.57;;;12.00;99.90;;;;;;5094399;28;20484;-68
2021/05/08 07:53:02;;;;;;;3.53;2.47;;;12.10;99.90;;;;;;5094256;28;20270;-68
2021/05/08 07:55:28;;;;;;;5.70;2.97;;;12.20;99.90;;;;;;5094531;28;20452;-68
2021/05/08 07:57:54;;;;;;;7.60;3.43;;;12.30;99.90;;;;;;5093379;28;20868;-68
2021/05/08 08:00:21;;;;;;;4.20;2.97;;;12.30;99.90;;;;;;5094643;28;20164;-68
2021/05/08 08:02:48;;;;;;;5.30;2.73;;;12.50;99.90;;;;;;5094239;28;20419;-67
2021/05/08 08:05:13;;;;;;;7.10;3.20;;;12.50;99.90;;;;;;5094240;28;20459;-68
2021/05/08 08:07:39;;;;;;;7.50;3.13;;;12.50;99.90;;;;;;5094196;28;20513;-68
2021/05/08 08:10:06;;;;;;;9.17;3.33;;;12.60;99.90;;;;;;5094268;28;20629;-68
2021/05/08 08:12:32;;;;;;;7.20;3.20;;;12.90;99.90;;;;;;5093967;28;20176;-68
2021/05/08 08:14:57;;;;;;;5.03;2.70;;;12.90;99.90;;;;;;5094108;28;20835;-68
2021/05/08 08:17:23;;;;;;;4.43;2.70;;;13.00;99.90;;;;;;5094228;28;20695;-68
2021/05/08 08:19:50;;;;;;;8.83;3.33;;;13.10;99.90;;;;;;5094162;28;20168;-68
2021/05/08 08:22:16;;;;;;;7.40;3.10;;;13.10;99.90;;;;;;5093886;28;20484;-68
2021/05/08 08:24:43;;;;;;;6.13;3.00;;;13.00;99.90;;;;;;5094049;28;20425;-68
2021/05/08 08:27:09;;;;;;;3.80;2.90;;;13.10;99.90;;;;;;5094231;28;20447;-67
2021/05/08 08:29:35;;;;;;;4.20;2.87;;;13.10;99.90;;;;;;5094086;28;20467;-68
2021/05/08 08:32:01;;;;;;;6.00;2.60;;;13.00;99.90;;;;;;5093719;28;20902;-68
2021/05/08 08:34:26;;;;;;;6.43;3.40;;;13.20;99.90;;;;;;5093765;28;20195;-68
2021/05/08 08:36:52;;;;;;;6.50;3.47;;;13.40;99.90;;;;;;5093742;28;20167;-68
2021/05/08 08:39:17;;;;;;;4.17;2.40;;;13.70;99.90;;;;;;5093886;28;20171;-67
2021/05/08 08:41:44;;;;;;;4.00;2.60;;;13.60;99.90;;;;;;5093591;28;20171;-68
2021/05/08 08:44:09;;;;;;;4.27;2.20;;;13.60;99.90;;;;;;5093312;28;20195;-68
2021/05/08 08:46:44;;;;;;;4.20;2.60;;;13.50;99.90;;;;;;5093103;28;20457;-70
2021/05/08 08:49:11;;;;;;;7.20;3.07;;;13.40;99.90;;;;;;5093633;28;20204;-68
2021/05/08 08:51:39;;;;;;;3.20;2.10;;;13.80;99.90;;;;;;5093328;28;20968;-69
2021/05/08 08:54:05;;;;;;;4.83;2.87;;;13.70;99.90;;;;;;5093305;28;21044;-69
2021/05/08 08:56:38;;;;;;;6.37;2.80;;;13.90;99.90;;;;;;5093189;28;20781;-68
2021/05/08 08:59:12;;;;;;;5.10;3.47;;;13.90;99.90;;;;;;5093757;28;20465;-68
2021/05/08 09:01:38;;;;;;;7.50;2.40;;;13.90;99.90;;;;;;5093513;28;20715;-68
2021/05/08 09:04:04;;;;;;;7.90;3.23;;;14.00;99.90;;;;;;5093162;28;20425;-68
2021/05/08 09:06:30;;;;;;;3.40;2.30;;;14.10;99.90;;;;;;5092424;28;20334;-68
2021/05/08 09:08:57;;;;;;;5.83;3.27;;;14.20;99.90;;;;;;5093034;28;20521;-68
2021/05/08 09:11:24;;;;;;;3.90;2.30;;;14.40;99.90;;;;;;5093267;28;20404;-68
2021/05/08 09:14:14;;;;;;;4.40;2.80;;;14.40;99.90;;;;;;5093020;28;20418;-68
2021/05/08 09:16:59;;;;;;;6.03;3.07;;;14.40;99.90;;;;;;5092909;28;20394;-68
2021/05/08 09:19:25;;;;;;;5.53;3.00;;;14.60;99.90;;;;;;5093347;28;20473;-68
2021/05/08 09:21:50;;;;;;;9.80;3.10;;;14.70;99.90;;;;;;5092706;28;20495;-68
2021/05/08 09:24:16;;;;;;;3.80;2.83;;;14.80;99.90;;;;;;5092784;28;20225;-68
2021/05/08 09:26:44;;;;;;;4.50;2.77;;;14.80;99.90;;;;;;5093198;28;20625;-70
2021/05/08 09:29:17;;;;;;;5.27;2.87;;;14.60;99.90;;;;;;5093002;28;20248;-68
2021/05/08 09:31:57;;;;;;;6.90;3.37;;;14.80;99.90;;;;;;5092570;28;20423;-68
2021/05/08 09:34:23;;;;;;;5.70;2.83;;;15.20;99.90;;;;;;5092670;28;20421;-68
2021/05/08 09:36:53;;;;;;;6.80;3.70;;;15.40;99.90;;;;;;5092655;28;20403;-68
2021/05/08 09:39:30;;;;;;;6.43;3.37;;;15.40;99.90;;;;;;5093060;28;20404;-68
2021/05/08 09:41:55;;;;;;;6.33;3.27;;;15.50;99.90;;;;;;5093568;28;20395;-69
2021/05/08 09:44:21;;;;;;;7.20;3.33;;;15.60;99.90;;;;;;5092616;28;20945;-68
2021/05/08 09:46:46;;;;;;;6.30;3.03;;;15.90;99.90;;;;;;5092629;28;20198;-68
2021/05/08 09:49:16;;;;;;;8.70;2.83;;;16.30;99.90;;;;;;5095312;28;20708;-68
2021/05/08 09:51:42;;;;;;;5.00;3.17;;;16.40;99.90;;;;;;5095943;28;20179;-69
2021/05/08 09:54:13;;;;;;;4.90;1.97;;;16.50;99.90;;;;;;5096748;28;20478;-68
2021/05/08 09:56:48;;;;;;;6.50;2.57;;;16.20;99.90;;;;;;5096756;28;20481;-69
2021/05/08 09:59:38;;;;;;;3.30;2.57;;;15.90;99.90;;;;;;5097217;28;20401;-68
2021/05/08 10:02:08;;;;;;;4.47;2.70;;;15.80;99.90;;;;;;5098150;28;20386;-68
2021/05/08 10:04:47;;;;;;;3.33;2.00;;;16.00;99.90;;;;;;5097308;28;20882;-69
2021/05/08 10:07:25;;;;;;;5.27;2.50;;;15.90;99.90;;;;;;5098134;28;20467;-68
2021/05/08 10:09:53;;;;;;;3.77;2.30;;;16.20;99.90;;;;;;5096626;28;20946;-69
2021/05/08 10:12:26;;;;;;;4.07;2.60;;;16.30;99.90;;;;;;5097763;28;20400;-69
2021/05/08 10:14:54;;;;;;;3.43;2.03;;;16.60;99.90;;;;;;5097330;28;20793;-68
2021/05/08 10:17:21;;;;;;;3.60;3.30;;;16.60;99.90;;;;;;5096219;28;20824;-68
2021/05/08 10:19:49;;;;;;;6.30;3.50;;;16.50;99.90;;;;;;5096351;28;20454;-68
2021/05/08 10:22:16;;;;;;;5.80;2.70;;;16.80;99.90;;;;;;5096326;28;20413;-68
2021/05/08 10:24:43;;;;;;;3.70;2.07;;;16.40;99.90;;;;;;5096339;28;20787;-68
2021/05/08 10:27:10;;;;;;;7.20;2.17;;;16.30;99.90;;;;;;5096466;28;20443;-68
2021/05/08 10:29:38;;;;;;;3.87;2.40;;;16.40;99.90;;;;;;5096571;28;20502;-68
2021/05/08 10:32:05;;;;;;;6.57;2.73;;;16.60;99.90;;;;;;5096158;28;20444;-68
2021/05/08 10:34:32;;;;;;;4.97;2.40;;;16.50;99.90;;;;;;5096052;28;20449;-69
2021/05/08 10:37:09;;;;;;;6.93;2.73;;;16.50;99.90;;;;;;5096537;28;20532;-69
2021/05/08 10:39:51;;;;;;;5.10;2.50;;;16.70;99.90;;;;;;5095114;28;20435;-69
2021/05/08 10:42:35;;;;;;;3.23;2.23;;;16.70;99.90;;;;;;5096205;28;20957;-69
2021/05/08 10:45:27;;;;;;;4.97;2.77;;;16.90;99.90;;;;;;5096123;28;20425;-68
2021/05/08 10:47:52;;;;;;;8.17;2.67;;;16.90;99.90;;;;;;5090207;28;20502;-68
2021/05/08 10:50:29;;;;;;;2.97;2.10;;;17.10;99.90;;;;;;5095666;28;20434;-68
2021/05/08 10:53:00;;;;;;;6.30;2.83;;;17.20;99.90;;;;;;5096006;28;20160;-68
2021/05/08 10:55:28;;;;;;;6.37;2.87;;;17.30;99.90;;;;;;5095534;28;20430;-68
2021/05/08 10:58:20;;;;;;;4.87;3.27;;;17.00;99.90;;;;;;5094331;28;20791;-68
2021/05/08 11:00:50;;;;;;;5.10;2.83;;;17.20;99.90;;;;;;5093973;28;20426;-68
2021/05/08 11:03:18;;;;;;;8.63;3.50;;;17.00;99.90;;;;;;5095462;28;20398;-68
2021/05/08 11:06:00;;;;;;;3.83;2.57;;;17.10;99.90;;;;;;5095245;28;20475;-68
2021/05/08 11:08:25;;;;;;;3.50;2.30;;;17.20;99.90;;;;;;5095315;28;20432;-69
2021/05/08 11:10:59;;;;;;;3.87;2.47;;;17.40;99.90;;;;;;5094984;28;20489;-68
2021/05/08 11:13:41;;;;;;;3.47;1.87;;;17.10;99.90;;;;;;5093865;28;20210;-69
2021/05/08 11:16:18;;;;;;;3.57;2.03;;;17.10;99.90;;;;;;5095580;28;20737;-69
2021/05/08 11:18:46;;;;;;;2.27;1.90;;;17.30;99.90;;;;;;5095738;28;20387;-68
2021/05/08 11:21:11;;;;;;;5.40;2.97;;;17.40;99.90;;;;;;5095417;28;20926;-67
2021/05/08 11:24:01;;;;;;;8.73;2.00;;;17.60;99.90;;;;;;5093615;28;20410;-69
2021/05/08 11:26:29;;;;;;;3.17;1.97;;;17.30;99.90;;;;;;5095658;28;20549;-69
2021/05/08 11:28:55;;;;;;;7.37;2.63;;;17.20;99.90;;;;;;5095333;28;20398;-69
2021/05/08 11:31:41;;;;;;;5.63;2.47;;;17.30;99.90;;;;;;5095355;28;21004;-68
2021/05/08 11:34:19;;;;;;;12.80;10.03;;;17.40;99.90;;;;;;5094725;28;20275;-69
2021/05/08 11:37:08;;;;;;;6.13;2.10;;;17.20;99.90;;;;;;5093682;28;20405;-69
2021/05/08 11:39:35;;;;;;;2.97;1.80;;;16.80;99.90;;;;;;5095454;28;20533;-69
2021/05/08 11:42:11;;;;;;;2.70;1.50;;;17.00;99.90;;;;;;5094983;28;20409;-68
2021/05/08 11:44:38;;;;;;;5.33;2.07;;;16.60;99.90;;;;;;5095050;28;20481;-69
2021/05/08 11:50:05;;;;;;;3.80;2.10;;;16.70;99.90;;;;;;5094403;28;20912;-69
2021/05/08 11:52:40;;;;;;;4.00;2.30;;;16.70;99.90;;;;;;5095260;28;20389;-68
2021/05/08 11:55:26;;;;;;;3.67;3.37;;;16.80;99.90;;;;;;5094529;28;20502;-69
2021/05/08 11:57:59;;;;;;;5.43;2.27;;;16.70;99.90;;;;;;5094670;28;20386;-69
2021/05/08 12:00:26;;;;;;;3.70;2.10;;;16.70;99.90;;;;;;5094474;28;20409;-68
2021/05/08 12:03:09;;;;;;;2.87;2.23;;;16.30;99.90;;;;;;5094406;28;20401;-68
2021/05/08 12:05:38;;;;;;;4.33;3.10;;;16.30;99.90;;;;;;5092618;28;20467;-68
2021/05/08 12:08:05;;;;;;;2.50;1.70;;;16.30;99.90;;;;;;5094183;28;20466;-68
2021/05/08 12:10:34;;;;;;;3.73;1.97;;;16.30;99.90;;;;;;5094028;28;20401;-68
2021/05/08 12:13:00;;;;;;;2.63;1.27;;;15.90;99.90;;;;;;5093753;28;20827;-69
2021/05/08 12:15:28;;;;;;;2.80;1.30;;;15.70;99.90;;;;;;5092763;28;20515;-69
2021/05/08 12:17:59;;;;;;;3.57;1.70;;;15.20;99.90;;;;;;5093689;28;20225;-68
2021/05/08 12:20:34;;;;;;;1.87;1.10;;;15.60;99.90;;;;;;5094285;28;20806;-68
2021/05/08 12:23:04;;;;;;;5.03;1.70;;;15.70;99.90;;;;;;5093746;28;20389;-68
2021/05/08 12:25:30;;;;;;;2.07;1.67;;;15.80;99.90;;;;;;5093837;28;20512;-68
2021/05/08 12:28:19;;;;;;;4.20;2.23;;;16.10;99.90;;;;;;5094217;28;20890;-69
2021/05/08 12:30:47;;;;;;;2.80;1.27;;;16.00;99.90;;;;;;5094204;28;20381;-68
2021/05/08 12:33:17;;;;;;;5.00;1.57;;;16.00;99.90;;;;;;5093712;28;20491;-68
2021/05/08 12:35:43;;;;;;;2.50;1.80;;;15.90;99.90;;;;;;5093707;28;20432;-68
2021/05/08 12:38:21;;;;;;;4.37;1.60;;;16.30;99.90;;;;;;5094061;28;20416;-68
2021/05/08 12:40:47;;;;;;;2.97;1.17;;;16.40;99.90;;;;;;5093816;28;20397;-69
2021/05/08 12:43:31;;;;;;;1.90;1.50;;;16.50;99.90;;;;;;5093879;28;20461;-68
2021/05/08 12:46:04;;;;;;;4.50;1.37;;;16.10;99.90;;;;;;5093904;28;21006;-69
2021/05/08 12:48:31;;;;;;;7.00;1.50;;;16.00;99.90;;;;;;5093438;28;20402;-69
2021/05/08 12:50:57;;;;;;;2.00;1.40;;;16.10;99.90;;;;;;5093489;28;20394;-68
2021/05/08 12:53:23;;;;;;;3.67;2.80;;;16.00;99.90;;;;;;5093263;28;20931;-68
2021/05/08 12:56:05;;;;;;;2.57;1.60;;;15.80;99.90;;;;;;5093429;28;20171;-68
2021/05/08 12:58:36;;;;;;;3.17;1.27;;;15.80;99.90;;;;;;5093675;28;20437;-69